F/V Moorea — FMIT — position and weather

sailwx.info

Track history (hours):
 
Tides and Currents Weather Stations Pressure Air Temp Water Temp Dewpoint Dewpoint Depression Visibility Wind Speed Wind Dir Waves Ship Positions

F/V Moorea

Last reported at 2016-May-29 02:27 UTC. Time now 2016-May-30 03:08 UTC.
Position N 46°55' W 002°52'.

Length 18 m.

Type: Fishing. MMSI: 228239900.

Date/timePositionNaut miles runAvg speedWind from/ knotsBaromVisibWave heightAir tempDewpointWater temp
2016-May-29 02:27N 46°55' W 002°52'8 8.8
2016-May-29 01:33N 47°02' W 002°47'9 8.9
2016-May-29 00:33N 47°10' W 002°41'9 8.7
2016-May-28 23:33N 47°18' W 002°35'2 2.4
2016-May-28 22:33N 47°19' W 002°32'8 7.9
2016-May-28 21:32N 47°13' W 002°40'9 8.6
2016-May-28 20:33N 47°06' W 002°48'25 8.3
2016-May-28 17:33N 46°46' W 003°09'4 3.2
2016-May-28 16:27N 46°43' W 003°11'3 3.7
2016-May-28 15:33N 46°44' W 003°07'7 1.2
2016-May-28 09:33N 46°43' W 003°18'4 4.0
2016-May-28 08:33N 46°45' W 003°12'3 2.3
2016-May-28 07:21N 46°43' W 003°15'2 2.0
2016-May-28 06:33N 46°44' W 003°14'4 3.9
2016-May-28 05:33N 46°46' W 003°09'3 3.3
2016-May-28 04:33N 46°45' W 003°05'3 2.2
2016-May-28 03:12N 46°47' W 003°02'0 0.3
2016-May-28 02:33N 46°47' W 003°01'0 0.5
2016-May-28 01:33N 46°46' W 003°01'7 6.4
2016-May-28 00:32N 46°52' W 002°56'8 7.9
2016-May-27 23:33N 46°59' W 002°51'8 7.8
2016-May-27 22:33N 47°06' W 002°45'8 8.1
2016-May-27 21:33N 47°13' W 002°39'8 7.7
2016-May-27 20:34N 47°19' W 002°33'2 1.8
2016-May-27 19:33N 47°18' W 002°31'6 5.6
2016-May-27 18:34N 47°15' W 002°37'9 8.5
2016-May-27 17:33N 47°07' W 002°44'9 9.0
2016-May-27 16:33N 46°60' W 002°52'9 9.0
2016-May-27 15:30N 46°52' W 002°59'14 4.7
2016-May-27 12:27N 46°44' W 003°16'4 4.0
2016-May-27 11:31N 46°43' W 003°11'3 1.7
2016-May-27 09:30N 46°44' W 003°16'4 3.9
2016-May-27 08:32N 46°45' W 003°10'1 1.1
2016-May-27 07:20N 46°44' W 003°12'3 3.9
2016-May-27 06:34N 46°46' W 003°09'4 3.6
2016-May-27 05:33N 46°45' W 003°04'6 1.8
2016-May-27 02:33N 46°43' W 003°11'9 4.4
2016-May-27 00:33N 46°46' W 002°59'9 9.5
2016-May-26 23:33N 46°54' W 002°52'10 9.8
2016-May-26 22:33N 47°03' W 002°46'10 9.9
2016-May-26 21:33N 47°12' W 002°40'9 9.0
2016-May-26 20:34N 47°19' W 002°32'1 1.1
2016-May-26 19:33N 47°18' W 002°31'3 3.3
2016-May-26 18:33N 47°17' W 002°35'10 9.5
2016-May-26 17:32N 47°09' W 002°43'10 9.5
2016-May-26 16:26N 47°00' W 002°51'21 9.9
2016-May-26 14:21N 46°44' W 003°10'3 3.9
2016-May-26 13:33N 46°44' W 003°14'4 0.9
2016-May-26 09:32N 46°42' W 003°09'22 1.7
2016-May-25 20:32N 46°23' W 002°53'4 2.1
2016-May-25 18:22N 46°27' W 002°58'2 2.7
2016-May-25 17:29N 46°27' W 002°54'35 2.7
2016-May-25 04:33N 47°01' W 002°43'9 8.8
2016-May-25 03:32N 47°09' W 002°39'9 8.7
2016-May-25 02:33N 47°17' W 002°35'3 3.1
2016-May-25 01:32N 47°18' W 002°31'3 3.0
2016-May-25 00:33N 47°17' W 002°35'8 7.6
2016-May-24 23:29N 47°09' W 002°38'6 6.4
2016-May-24 22:29N 47°03' W 002°40'2 1.5
2016-May-24 21:09N 47°01' W 002°41'1 1.6
2016-May-24 20:29N 47°01' W 002°42'40 2.1
2016-May-24 01:05N 46°22' W 002°51'28 8.0
2016-May-23 21:33N 46°25' W 002°10'10 9.7
2016-May-23 20:33N 46°27' W 001°57'7 6.9
2016-May-23 19:33N 46°30' W 001°48'3 2.5
2016-May-23 18:33N 46°28' W 001°50'9 9.2
2016-May-23 17:33N 46°27' W 002°03'44 1.2
2016-May-22 05:30N 46°55' W 002°52'9 9.3
2016-May-22 04:33N 47°03' W 002°46'9 9.2
2016-May-22 03:33N 47°11' W 002°40'9 8.5
2016-May-22 02:28N 47°19' W 002°32'1 0.0
2016-May-21 00:34N 47°18' W 002°31'5 5.3
2016-May-20 23:33N 47°15' W 002°37'10 9.9
2016-May-20 22:31N 47°07' W 002°46'26 8.3
2016-May-20 19:25N 46°46' W 003°09'0 0.1
2016-May-20 18:10N 46°46' W 003°09'6 1.5
2016-May-20 14:23N 46°41' W 003°12'3 0.8
2016-May-20 11:04N 46°39' W 003°14'1 0.2
2016-May-20 07:32N 46°38' W 003°14'4 3.9
2016-May-20 06:27N 46°41' W 003°10'11 5.6
2016-May-20 04:30N 46°50' W 002°60'9 9.6
2016-May-20 03:33N 46°57' W 002°52'9 9.1
2016-May-20 02:33N 47°05' W 002°45'9 8.7
2016-May-20 01:33N 47°12' W 002°39'8 7.4
2016-May-20 00:30N 47°18' W 002°31'0 0.4
2016-May-19 23:33N 47°18' W 002°31'8 7.8
2016-May-19 22:30N 47°12' W 002°40'10 9.6
2016-May-19 21:30N 47°04' W 002°47'30 3.0
2016-May-19 11:30N 46°41' W 003°14'  
Track history (hours):
 
Tides and Currents Weather Stations Pressure Air Temp Water Temp Dewpoint Dewpoint Depression Visibility Wind Speed Wind Dir Waves Ship Positions

F/V Moorea

Last reported at 2016-May-29 02:27 UTC. Time now 2016-May-30 03:08 UTC.
Position N 46°55' W 002°52'.

Length 18 m.

Type: Fishing. MMSI: 228239900.

Date/timePositionNaut miles runAvg speedWind from/ knotsBaromVisibWave heightAir tempDewpointWater temp
2016-May-29 02:27N 46°55' W 002°52'8 8.8
2016-May-29 01:33N 47°02' W 002°47'9 8.9
2016-May-29 00:33N 47°10' W 002°41'9 8.7
2016-May-28 23:33N 47°18' W 002°35'2 2.4
2016-May-28 22:33N 47°19' W 002°32'8 7.9
2016-May-28 21:32N 47°13' W 002°40'9 8.6
2016-May-28 20:33N 47°06' W 002°48'25 8.3
2016-May-28 17:33N 46°46' W 003°09'4 3.2
2016-May-28 16:27N 46°43' W 003°11'3 3.7
2016-May-28 15:33N 46°44' W 003°07'7 1.2
2016-May-28 09:33N 46°43' W 003°18'4 4.0
2016-May-28 08:33N 46°45' W 003°12'3 2.3
2016-May-28 07:21N 46°43' W 003°15'2 2.0
2016-May-28 06:33N 46°44' W 003°14'4 3.9
2016-May-28 05:33N 46°46' W 003°09'3 3.3
2016-May-28 04:33N 46°45' W 003°05'3 2.2
2016-May-28 03:12N 46°47' W 003°02'0 0.3
2016-May-28 02:33N 46°47' W 003°01'0 0.5
2016-May-28 01:33N 46°46' W 003°01'7 6.4
2016-May-28 00:32N 46°52' W 002°56'8 7.9
2016-May-27 23:33N 46°59' W 002°51'8 7.8
2016-May-27 22:33N 47°06' W 002°45'8 8.1
2016-May-27 21:33N 47°13' W 002°39'8 7.7
2016-May-27 20:34N 47°19' W 002°33'2 1.8
2016-May-27 19:33N 47°18' W 002°31'6 5.6
2016-May-27 18:34N 47°15' W 002°37'9 8.5
2016-May-27 17:33N 47°07' W 002°44'9 9.0
2016-May-27 16:33N 46°60' W 002°52'9 9.0
2016-May-27 15:30N 46°52' W 002°59'14 4.7
2016-May-27 12:27N 46°44' W 003°16'4 4.0
2016-May-27 11:31N 46°43' W 003°11'3 1.7
2016-May-27 09:30N 46°44' W 003°16'4 3.9
2016-May-27 08:32N 46°45' W 003°10'1 1.1
2016-May-27 07:20N 46°44' W 003°12'3 3.9
2016-May-27 06:34N 46°46' W 003°09'4 3.6
2016-May-27 05:33N 46°45' W 003°04'6 1.8
2016-May-27 02:33N 46°43' W 003°11'9 4.4
2016-May-27 00:33N 46°46' W 002°59'9 9.5
2016-May-26 23:33N 46°54' W 002°52'10 9.8
2016-May-26 22:33N 47°03' W 002°46'10 9.9
2016-May-26 21:33N 47°12' W 002°40'9 9.0
2016-May-26 20:34N 47°19' W 002°32'1 1.1
2016-May-26 19:33N 47°18' W 002°31'3 3.3
2016-May-26 18:33N 47°17' W 002°35'10 9.5
2016-May-26 17:32N 47°09' W 002°43'10 9.5
2016-May-26 16:26N 47°00' W 002°51'21 9.9
2016-May-26 14:21N 46°44' W 003°10'3 3.9
2016-May-26 13:33N 46°44' W 003°14'4 0.9
2016-May-26 09:32N 46°42' W 003°09'22 1.7
2016-May-25 20:32N 46°23' W 002°53'4 2.1
2016-May-25 18:22N 46°27' W 002°58'2 2.7
2016-May-25 17:29N 46°27' W 002°54'35 2.7
2016-May-25 04:33N 47°01' W 002°43'9 8.8
2016-May-25 03:32N 47°09' W 002°39'9 8.7
2016-May-25 02:33N 47°17' W 002°35'3 3.1
2016-May-25 01:32N 47°18' W 002°31'3 3.0
2016-May-25 00:33N 47°17' W 002°35'8 7.6
2016-May-24 23:29N 47°09' W 002°38'6 6.4
2016-May-24 22:29N 47°03' W 002°40'2 1.5
2016-May-24 21:09N 47°01' W 002°41'1 1.6
2016-May-24 20:29N 47°01' W 002°42'40 2.1
2016-May-24 01:05N 46°22' W 002°51'28 8.0
2016-May-23 21:33N 46°25' W 002°10'10 9.7
2016-May-23 20:33N 46°27' W 001°57'7 6.9
2016-May-23 19:33N 46°30' W 001°48'3 2.5
2016-May-23 18:33N 46°28' W 001°50'9 9.2
2016-May-23 17:33N 46°27' W 002°03'44 1.2
2016-May-22 05:30N 46°55' W 002°52'9 9.3
2016-May-22 04:33N 47°03' W 002°46'9 9.2
2016-May-22 03:33N 47°11' W 002°40'9 8.5
2016-May-22 02:28N 47°19' W 002°32'1 0.0
2016-May-21 00:34N 47°18' W 002°31'5 5.3
2016-May-20 23:33N 47°15' W 002°37'10 9.9
2016-May-20 22:31N 47°07' W 002°46'26 8.3
2016-May-20 19:25N 46°46' W 003°09'0 0.1
2016-May-20 18:10N 46°46' W 003°09'6 1.5
2016-May-20 14:23N 46°41' W 003°12'3 0.8
2016-May-20 11:04N 46°39' W 003°14'1 0.2
2016-May-20 07:32N 46°38' W 003°14'4 3.9
2016-May-20 06:27N 46°41' W 003°10'11 5.6
2016-May-20 04:30N 46°50' W 002°60'9 9.6
2016-May-20 03:33N 46°57' W 002°52'9 9.1
2016-May-20 02:33N 47°05' W 002°45'9 8.7
2016-May-20 01:33N 47°12' W 002°39'8 7.4
2016-May-20 00:30N 47°18' W 002°31'0 0.4
2016-May-19 23:33N 47°18' W 002°31'8 7.8
2016-May-19 22:30N 47°12' W 002°40'10 9.6
2016-May-19 21:30N 47°04' W 002°47'30 3.0
2016-May-19 11:30N 46°41' W 003°14'  

Dump ship's entire track history